createdAt,value
2019-04-03T00:01:21.516Z,8.35
2019-04-03T00:03:53.443Z,7.70
2019-04-03T00:06:25.475Z,8.78
2019-04-03T00:08:57.485Z,8.73
2019-04-03T00:11:29.420Z,10.10
2019-04-03T00:14:01.346Z,7.33
2019-04-03T00:16:33.246Z,8.03
2019-04-03T00:19:05.556Z,8.20
2019-04-03T00:24:09.179Z,9.00
2019-04-03T00:26:41.067Z,9.28
2019-04-03T00:29:13.052Z,8.00
2019-04-03T00:31:45.056Z,9.75
2019-04-03T00:34:17.125Z,9.83
2019-04-03T00:36:49.125Z,9.30
2019-04-03T00:39:22.661Z,9.98
2019-04-03T00:41:55.216Z,9.88
2019-04-03T00:44:27.286Z,10.13
2019-04-03T00:46:59.305Z,9.48
2019-04-03T00:49:31.511Z,9.85
2019-04-03T00:52:03.523Z,9.33
2019-04-03T00:54:35.596Z,10.10
2019-04-03T00:57:07.506Z,9.38
2019-04-03T00:59:39.446Z,11.08
2019-04-03T01:02:11.466Z,8.70
2019-04-03T01:04:44.069Z,8.65
2019-04-03T01:07:16.152Z,10.75
2019-04-03T01:09:48.085Z,10.45
2019-04-03T01:12:20.134Z,9.03
2019-04-03T01:14:53.074Z,9.20
2019-04-03T01:19:55.814Z,9.80
2019-04-03T01:22:27.759Z,9.38
2019-04-03T01:24:59.808Z,8.23
2019-04-03T01:27:32.095Z,9.93
2019-04-03T01:30:04.276Z,8.58
2019-04-03T01:32:36.905Z,8.88
2019-04-03T01:35:09.733Z,7.35
2019-04-03T01:37:42.354Z,7.87
2019-04-03T01:40:14.266Z,6.60
2019-04-03T01:42:46.296Z,7.33
2019-04-03T01:45:18.434Z,6.40
2019-04-03T01:50:21.364Z,8.13
2019-04-03T01:55:24.363Z,9.45
2019-04-03T01:57:56.314Z,6.87
2019-04-03T02:00:28.395Z,7.50
2019-04-03T02:03:01.947Z,6.28
2019-04-03T02:05:33.997Z,8.38
2019-04-03T02:10:37.277Z,7.05
2019-04-03T02:13:09.385Z,7.62
2019-04-03T02:15:41.313Z,7.30
2019-04-03T02:18:14.334Z,6.17
2019-04-03T02:20:46.274Z,6.72
2019-04-03T02:23:18.366Z,7.03
2019-04-03T02:25:50.268Z,6.58
2019-04-03T02:28:22.167Z,8.55
2019-04-03T02:30:55.237Z,7.62
2019-04-03T02:35:59.829Z,8.13
2019-04-03T02:41:04.052Z,9.30
2019-04-03T02:43:36.355Z,7.28
2019-04-03T02:48:40.102Z,8.83
2019-04-03T02:51:12.596Z,9.43
2019-04-03T02:53:46.343Z,8.55
2019-04-03T02:56:18.290Z,8.33
2019-04-03T02:58:53.389Z,7.58
2019-04-03T03:01:23.999Z,7.92
2019-04-03T03:03:56.243Z,9.55
2019-04-03T03:06:31.791Z,9.68
2019-04-03T03:09:02.435Z,11.30
2019-04-03T03:11:35.623Z,9.70
2019-04-03T03:14:08.315Z,9.73
2019-04-03T03:16:40.747Z,11.15
2019-04-03T03:21:45.544Z,8.43
2019-04-03T03:24:18.907Z,12.50
2019-04-03T03:26:51.796Z,9.10
2019-04-03T03:29:26.779Z,11.97
2019-04-03T03:32:11.633Z,8.88
2019-04-03T03:34:51.515Z,16.35
2019-04-03T03:37:12.185Z,8.25
2019-04-03T03:39:44.546Z,9.95
2019-04-03T03:42:16.898Z,8.83
2019-04-03T03:44:49.901Z,11.48
2019-04-03T03:47:21.919Z,8.10
2019-04-03T03:49:54.632Z,11.78
2019-04-03T03:52:27.082Z,8.35
2019-04-03T03:55:00.520Z,11.38
2019-04-03T03:57:33.569Z,9.03
2019-04-03T04:00:06.900Z,11.12
2019-04-03T04:02:43.258Z,8.98
2019-04-03T04:05:13.383Z,14.95
2019-04-03T04:10:16.635Z,13.93
2019-04-03T04:12:49.692Z,10.55
2019-04-03T04:15:22.255Z,12.60
2019-04-03T04:17:54.776Z,9.53
2019-04-03T04:20:28.295Z,12.35
2019-04-03T04:23:01.226Z,12.95
2019-04-03T04:25:33.326Z,11.00
2019-04-03T04:30:37.139Z,10.72
2019-04-03T04:35:39.876Z,12.03
2019-04-03T04:40:43.016Z,11.45
2019-04-03T04:43:15.186Z,11.25
2019-04-03T04:45:47.220Z,9.98
2019-04-03T04:48:20.750Z,10.53
2019-04-03T04:50:55.109Z,10.35
2019-04-03T04:53:29.371Z,11.12
2019-04-03T04:56:00.186Z,9.88
2019-04-03T04:58:32.129Z,11.55
2019-04-03T05:01:04.146Z,9.78
2019-04-03T05:03:36.235Z,12.50
2019-04-03T05:06:08.999Z,8.75
2019-04-03T05:08:41.342Z,10.25
2019-04-03T05:13:46.411Z,12.03
2019-04-03T05:16:20.178Z,9.00
2019-04-03T05:18:51.746Z,10.32
2019-04-03T05:21:24.247Z,8.05
2019-04-03T05:24:05.261Z,8.60
2019-04-03T05:26:31.936Z,9.03
2019-04-03T05:29:04.674Z,9.63
2019-04-03T05:31:39.049Z,10.00
2019-04-03T05:34:12.665Z,11.83
2019-04-03T05:36:44.736Z,8.95
2019-04-03T05:41:47.691Z,9.25
2019-04-03T05:44:22.956Z,12.35
2019-04-03T05:46:53.696Z,9.03
2019-04-03T05:49:25.874Z,10.68
2019-04-03T05:54:29.130Z,12.40
2019-04-03T05:57:01.385Z,9.53
2019-04-03T05:59:33.822Z,11.78
2019-04-03T06:02:14.653Z,9.93
2019-04-03T06:04:40.812Z,11.73
2019-04-03T06:07:17.523Z,8.90
2019-04-03T06:09:48.857Z,10.03
2019-04-03T06:12:20.894Z,9.05
2019-04-03T06:14:52.849Z,9.30
2019-04-03T06:17:24.814Z,8.98
2019-04-03T06:19:56.746Z,8.13
2019-04-03T06:22:28.733Z,9.83
2019-04-03T06:25:01.034Z,7.95
2019-04-03T06:27:33.132Z,8.73
2019-04-03T06:30:06.598Z,6.62
2019-04-03T06:32:38.603Z,7.95
2019-04-03T06:35:13.346Z,7.47
2019-04-03T06:37:44.366Z,8.03
2019-04-03T06:40:16.709Z,7.40
2019-04-03T06:42:49.099Z,7.83
2019-04-03T06:45:21.205Z,7.05
2019-04-03T06:47:53.323Z,9.13
2019-04-03T06:52:56.360Z,9.28
2019-04-03T06:57:59.069Z,9.98
2019-04-03T07:00:31.177Z,9.28
2019-04-03T07:03:04.008Z,10.20
2019-04-03T07:05:36.946Z,7.47
2019-04-03T07:08:09.045Z,9.43
2019-04-03T07:10:41.137Z,7.53
2019-04-03T07:13:15.221Z,10.32
2019-04-03T07:15:47.386Z,9.28
2019-04-03T07:18:19.394Z,10.43
2019-04-03T07:20:52.279Z,11.33
2019-04-03T07:23:26.073Z,11.28
2019-04-03T07:25:58.217Z,11.00
2019-04-03T07:28:30.944Z,11.10
2019-04-03T07:31:03.216Z,12.03
2019-04-03T07:33:35.076Z,10.48
2019-04-03T07:36:07.046Z,11.95
2019-04-03T07:38:39.085Z,9.95
2019-04-03T07:41:11.230Z,13.13
2019-04-03T07:43:43.168Z,10.58
2019-04-03T07:46:15.106Z,15.53
2019-04-03T07:48:47.008Z,7.92
2019-04-03T07:51:18.949Z,9.90
2019-04-03T07:53:51.626Z,9.15
2019-04-03T07:56:25.571Z,10.55
2019-04-03T07:58:57.566Z,8.98
2019-04-03T08:01:29.701Z,11.50
2019-04-03T08:06:33.010Z,11.48
2019-04-03T08:09:09.923Z,7.60
2019-04-03T08:11:42.745Z,7.12
2019-04-03T08:14:14.764Z,6.53
2019-04-03T08:16:48.195Z,6.53
2019-04-03T08:19:22.241Z,6.97
2019-04-03T08:21:54.294Z,6.87
2019-04-03T08:24:26.215Z,6.78
2019-04-03T08:26:58.164Z,7.60
2019-04-03T08:29:31.049Z,6.08
2019-04-03T08:32:03.807Z,6.65
2019-04-03T08:34:35.787Z,6.08
2019-04-03T08:37:10.358Z,6.10
2019-04-03T08:39:41.576Z,6.45
2019-04-03T08:42:13.808Z,6.50
2019-04-03T08:44:45.986Z,8.63
2019-04-03T08:47:18.389Z,6.17
2019-04-03T08:52:21.157Z,6.00
2019-04-03T08:54:53.126Z,7.97
2019-04-03T08:57:25.086Z,6.12
2019-04-03T08:59:59.613Z,9.80
2019-04-03T09:02:30.926Z,8.83
2019-04-03T09:07:34.207Z,9.53
2019-04-03T09:10:07.864Z,13.58
2019-04-03T09:12:41.247Z,12.53
2019-04-03T09:15:14.770Z,15.93
2019-04-03T09:17:46.873Z,10.78
2019-04-03T09:20:18.906Z,12.90
2019-04-03T09:25:23.811Z,11.22
2019-04-03T09:27:56.045Z,11.38
2019-04-03T09:30:28.646Z,10.85
2019-04-03T09:33:00.863Z,9.68
2019-04-03T09:35:33.264Z,9.83
2019-04-03T09:40:36.678Z,10.32
2019-04-03T09:43:08.746Z,8.43
2019-04-03T09:45:40.763Z,6.58
2019-04-03T09:50:46.374Z,5.23
2019-04-03T09:53:18.658Z,4.92
2019-04-03T09:55:50.640Z,5.20
2019-04-03T09:58:22.637Z,4.75
2019-04-03T10:00:54.724Z,5.17
2019-04-03T10:03:27.016Z,5.17
2019-04-03T10:06:00.158Z,5.35
2019-04-03T10:08:33.056Z,5.17
2019-04-03T10:13:37.576Z,5.10
2019-04-03T10:16:09.526Z,5.00
2019-04-03T10:18:42.330Z,4.80
2019-04-03T10:21:14.979Z,4.62
2019-04-03T10:23:46.966Z,4.92
2019-04-03T10:28:50.473Z,4.00
2019-04-03T10:31:24.245Z,4.17
2019-04-03T10:33:56.788Z,4.67
2019-04-03T10:36:28.856Z,5.15
2019-04-03T10:39:01.130Z,4.83
2019-04-03T10:41:33.866Z,4.75
2019-04-03T10:44:08.178Z,4.45
2019-04-03T10:46:39.967Z,4.67
2019-04-03T10:49:12.084Z,4.80
2019-04-03T10:51:44.097Z,4.47
2019-04-03T10:54:16.269Z,4.62
2019-04-03T10:59:19.536Z,5.17
2019-04-03T11:01:51.586Z,5.03
2019-04-03T11:04:23.525Z,4.97
2019-04-03T11:06:55.797Z,4.90
2019-04-03T11:09:27.888Z,5.08
2019-04-03T11:12:01.175Z,5.35
2019-04-03T11:14:33.296Z,5.08
2019-04-03T11:17:05.230Z,6.25
2019-04-03T11:19:38.187Z,5.97
2019-04-03T11:22:10.490Z,6.22
2019-04-03T11:24:43.391Z,5.28
2019-04-03T11:29:46.231Z,8.08
2019-04-03T11:32:18.132Z,6.40
2019-04-03T11:34:50.217Z,6.70
2019-04-03T11:40:02.780Z,8.63
2019-04-03T11:42:29.326Z,9.65
2019-04-03T11:45:04.345Z,7.97
2019-04-03T11:47:35.021Z,10.08
2019-04-03T11:50:08.849Z,6.30
2019-04-03T11:52:41.773Z,6.17
2019-04-03T11:55:15.551Z,5.72
2019-04-03T11:57:49.351Z,6.08
2019-04-03T12:00:31.351Z,4.80
2019-04-03T12:03:03.805Z,5.35
2019-04-03T12:05:36.083Z,4.97
2019-04-03T12:08:08.533Z,4.47
2019-04-03T12:10:40.636Z,4.58
2019-04-03T12:13:14.229Z,5.12
2019-04-03T12:15:46.791Z,5.30
2019-04-03T12:18:18.946Z,6.22
2019-04-03T12:20:51.096Z,5.67
2019-04-03T12:25:54.394Z,6.03
2019-04-03T12:28:26.553Z,6.78
2019-04-03T12:30:58.516Z,6.75
2019-04-03T12:33:30.446Z,5.92
2019-04-03T12:36:02.434Z,6.05
2019-04-03T12:38:34.453Z,5.45
2019-04-03T12:41:06.620Z,5.33
2019-04-03T12:46:09.802Z,4.78
2019-04-03T12:48:42.654Z,5.47
2019-04-03T12:51:14.753Z,5.95
2019-04-03T12:53:48.442Z,4.70
2019-04-03T12:56:20.265Z,4.92
2019-04-03T12:58:52.434Z,4.25
2019-04-03T13:01:25.483Z,4.60
2019-04-03T13:03:57.514Z,4.55
2019-04-03T13:06:29.593Z,4.47
2019-04-03T13:09:01.772Z,4.65
2019-04-03T13:11:35.128Z,4.37
2019-04-03T13:14:08.409Z,5.72
2019-04-03T13:16:41.780Z,4.20
2019-04-03T13:19:15.980Z,3.50
2019-04-03T13:21:48.196Z,5.10
2019-04-03T13:24:20.222Z,4.95
2019-04-03T13:26:52.759Z,4.72
2019-04-03T13:29:25.194Z,4.42
2019-04-03T13:34:30.852Z,4.25
2019-04-03T13:37:02.195Z,4.45
2019-04-03T13:39:34.759Z,4.65
2019-04-03T13:42:07.293Z,4.80
2019-04-03T13:44:39.639Z,4.72
2019-04-03T13:47:11.739Z,4.65
2019-04-03T13:52:15.393Z,4.10
2019-04-03T13:54:47.842Z,4.60
2019-04-03T13:57:20.416Z,4.53
2019-04-03T13:59:52.531Z,4.62
2019-04-03T14:02:25.626Z,4.53
2019-04-03T14:04:59.194Z,4.10
2019-04-03T14:07:31.604Z,4.62
2019-04-03T14:10:04.587Z,4.72
2019-04-03T14:12:38.749Z,4.90
2019-04-03T14:15:11.066Z,4.53
2019-04-03T14:17:54.125Z,4.87
2019-04-03T14:20:18.854Z,4.90
2019-04-03T14:22:51.004Z,4.67
2019-04-03T14:27:55.992Z,4.55
2019-04-03T14:30:29.084Z,4.37
2019-04-03T14:33:01.129Z,3.80
2019-04-03T14:38:05.785Z,3.90
2019-04-03T14:40:37.764Z,4.15
2019-04-03T14:43:09.841Z,4.22
2019-04-03T14:48:13.146Z,4.67
2019-04-03T14:50:45.457Z,4.75
2019-04-03T14:53:17.826Z,4.42
2019-04-03T14:55:51.293Z,3.50
2019-04-03T14:58:25.479Z,4.22
2019-04-03T15:00:59.721Z,3.70
2019-04-03T15:03:34.050Z,4.42
2019-04-03T15:06:05.899Z,5.50
2019-04-03T15:08:38.964Z,4.12
2019-04-03T15:13:42.102Z,4.05
2019-04-03T15:18:45.144Z,4.35
2019-04-03T15:21:22.204Z,4.53
2019-04-03T15:23:53.076Z,4.60
2019-04-03T15:26:25.073Z,5.53
2019-04-03T15:29:00.003Z,5.83
2019-04-03T15:31:33.548Z,6.12
2019-04-03T15:34:05.715Z,5.22
2019-04-03T15:36:38.996Z,5.70
2019-04-03T15:39:17.165Z,6.37
2019-04-03T15:41:48.744Z,5.22
2019-04-03T15:44:21.584Z,5.78
2019-04-03T15:46:55.027Z,5.67
2019-04-03T15:49:27.815Z,6.72
2019-04-03T15:52:00.048Z,6.08
2019-04-03T15:54:33.662Z,5.17
2019-04-03T15:57:06.153Z,5.20
2019-04-03T15:59:38.714Z,5.05
2019-04-03T16:02:13.315Z,4.90
2019-04-03T16:04:45.546Z,6.83
2019-04-03T16:07:17.725Z,5.95
2019-04-03T16:09:51.277Z,5.40
2019-04-03T16:12:23.659Z,7.60
2019-04-03T16:14:55.746Z,5.80
2019-04-03T16:17:29.203Z,7.92
2019-04-03T16:20:01.528Z,7.33
2019-04-03T16:22:33.627Z,8.43
2019-04-03T16:25:06.280Z,8.43
2019-04-03T16:27:38.526Z,8.38
2019-04-03T16:30:14.226Z,8.58
2019-04-03T16:32:46.237Z,9.05
2019-04-03T16:35:18.475Z,10.23
2019-04-03T16:40:23.611Z,16.45
2019-04-03T16:42:55.867Z,12.20
2019-04-03T16:47:58.787Z,10.15
2019-04-03T16:53:02.394Z,11.35
2019-04-03T16:55:34.574Z,15.45
2019-04-03T17:00:40.380Z,13.68
2019-04-03T17:03:11.768Z,12.50
2019-04-03T17:08:17.057Z,14.58
2019-04-03T17:10:49.282Z,11.50
2019-04-03T17:13:21.528Z,10.18
2019-04-03T17:15:55.497Z,11.25
2019-04-03T17:18:29.193Z,10.00
2019-04-03T17:23:32.684Z,7.28
2019-04-03T17:28:36.044Z,8.03
2019-04-03T17:33:39.314Z,8.53
2019-04-03T17:36:11.720Z,10.98
2019-04-03T17:38:46.744Z,7.25
2019-04-03T17:41:17.574Z,9.43
2019-04-03T17:43:52.179Z,9.50
2019-04-03T17:46:28.303Z,9.30
2019-04-03T17:49:00.686Z,11.55
2019-04-03T17:51:33.644Z,12.15
2019-04-03T17:54:07.774Z,18.57
2019-04-03T17:56:42.708Z,15.58
2019-04-03T17:59:18.118Z,13.62
2019-04-03T18:01:52.161Z,14.15
2019-04-03T18:04:22.820Z,10.93
2019-04-03T18:06:57.253Z,18.00
2019-04-03T18:09:28.936Z,13.22
2019-04-03T18:12:01.097Z,15.25
2019-04-03T18:14:48.316Z,9.98
2019-04-03T18:17:25.597Z,14.18
2019-04-03T18:20:01.014Z,13.75
2019-04-03T18:22:34.766Z,14.00
2019-04-03T18:25:09.494Z,12.05
2019-04-03T18:27:41.694Z,12.68
2019-04-03T18:30:14.414Z,9.95
2019-04-03T18:32:46.737Z,10.65
2019-04-03T18:37:49.546Z,14.05
2019-04-03T18:40:21.688Z,9.95
2019-04-03T18:42:53.746Z,13.28
2019-04-03T18:45:26.024Z,11.08
2019-04-03T18:47:58.329Z,13.70
2019-04-03T18:53:01.727Z,13.40
2019-04-03T18:58:06.255Z,13.45
2019-04-03T19:00:38.176Z,13.43
2019-04-03T19:03:10.286Z,13.65
2019-04-03T19:05:42.818Z,10.58
2019-04-03T19:08:18.163Z,11.75
2019-04-03T19:11:01.605Z,11.45
2019-04-03T19:13:25.414Z,13.88
2019-04-03T19:16:02.033Z,9.35
2019-04-03T19:18:33.190Z,10.38
2019-04-03T19:21:05.297Z,13.25
2019-04-03T19:23:48.904Z,11.83
2019-04-03T19:26:11.126Z,13.78
2019-04-03T19:28:44.277Z,14.87
2019-04-03T19:31:16.250Z,11.33
2019-04-03T19:33:48.238Z,14.45
2019-04-03T19:36:20.570Z,15.78
2019-04-03T19:38:53.611Z,14.28
2019-04-03T19:41:25.730Z,12.95
2019-04-03T19:44:00.564Z,14.45
2019-04-03T19:46:31.625Z,12.70
2019-04-03T19:49:03.796Z,15.75
2019-04-03T19:51:37.522Z,14.70
2019-04-03T19:54:09.655Z,14.05
2019-04-03T19:56:42.596Z,13.98
2019-04-03T19:59:15.868Z,14.85
2019-04-03T20:01:48.065Z,13.30
2019-04-03T20:04:20.027Z,13.70
2019-04-03T20:06:52.962Z,11.45
2019-04-03T20:09:25.562Z,9.78
2019-04-03T20:11:57.637Z,9.83
2019-04-03T20:14:29.577Z,11.22
2019-04-03T20:17:01.567Z,9.88
2019-04-03T20:22:06.736Z,13.60
2019-04-03T20:24:38.466Z,10.23
2019-04-03T20:27:10.527Z,10.13
2019-04-03T20:29:42.426Z,9.58
2019-04-03T20:32:14.447Z,10.15
2019-04-03T20:34:46.386Z,10.00
2019-04-03T20:37:18.556Z,11.80
2019-04-03T20:39:50.792Z,11.60
2019-04-03T20:42:23.116Z,12.37
2019-04-03T20:44:55.175Z,10.65
2019-04-03T20:47:27.507Z,10.98
2019-04-03T20:49:59.591Z,11.78
2019-04-03T20:55:03.979Z,12.30
2019-04-03T21:00:11.901Z,11.50
2019-04-03T21:02:44.764Z,9.73
2019-04-03T21:05:18.723Z,12.75
2019-04-03T21:07:50.676Z,10.13
2019-04-03T21:10:22.646Z,12.10
2019-04-03T21:12:55.716Z,8.98
2019-04-03T21:15:27.753Z,9.90
2019-04-03T21:17:59.826Z,7.08
2019-04-03T21:20:31.815Z,8.33
2019-04-03T21:23:03.927Z,7.78
2019-04-03T21:25:36.669Z,7.90
2019-04-03T21:28:08.955Z,8.50
2019-04-03T21:30:46.306Z,7.33
2019-04-03T21:33:18.346Z,8.03
2019-04-03T21:35:50.376Z,8.20
2019-04-03T21:38:22.486Z,7.35
2019-04-03T21:40:55.835Z,7.03
2019-04-03T21:43:29.184Z,7.35
2019-04-03T21:48:47.868Z,6.85
2019-04-03T21:51:20.868Z,7.83
2019-04-03T21:53:55.708Z,7.00
2019-04-03T21:56:27.426Z,7.05
2019-04-03T21:58:59.525Z,7.55
2019-04-03T22:01:31.616Z,5.78
2019-04-03T22:04:03.575Z,6.78
2019-04-03T22:06:35.546Z,6.28
2019-04-03T22:09:12.262Z,6.70
2019-04-03T22:11:44.496Z,6.90
2019-04-03T22:14:16.666Z,5.97
2019-04-03T22:16:50.499Z,6.35
2019-04-03T22:19:22.136Z,6.15
2019-04-03T22:21:54.256Z,6.05
2019-04-03T22:24:26.315Z,6.40
2019-04-03T22:26:58.424Z,5.83
2019-04-03T22:29:30.508Z,6.20
2019-04-03T22:32:02.536Z,6.47
2019-04-03T22:34:35.415Z,7.00
2019-04-03T22:37:07.306Z,6.65
2019-04-03T22:39:39.836Z,7.22
2019-04-03T22:42:14.722Z,7.17
2019-04-03T22:44:47.892Z,7.03
2019-04-03T22:47:19.608Z,6.17
2019-04-03T22:49:52.169Z,6.97
2019-04-03T22:52:24.337Z,8.13
2019-04-03T22:54:56.226Z,7.65
2019-04-03T22:57:28.128Z,7.22
2019-04-03T23:00:00.287Z,7.55
2019-04-03T23:02:33.647Z,10.23
2019-04-03T23:05:06.028Z,9.10
2019-04-03T23:07:38.016Z,8.23
2019-04-03T23:10:10.796Z,9.23
2019-04-03T23:12:42.855Z,7.33
2019-04-03T23:15:15.085Z,8.83
2019-04-03T23:20:18.146Z,9.23
2019-04-03T23:22:50.396Z,9.35
2019-04-03T23:25:23.107Z,9.13
2019-04-03T23:27:55.188Z,9.15
2019-04-03T23:30:27.296Z,9.35
2019-04-03T23:32:59.236Z,9.13
2019-04-03T23:35:32.117Z,8.68
2019-04-03T23:38:04.156Z,7.42
2019-04-03T23:40:36.266Z,8.45
2019-04-03T23:43:08.955Z,10.10
2019-04-03T23:45:43.523Z,11.15
2019-04-03T23:48:17.592Z,10.93
2019-04-03T23:50:52.369Z,11.40
2019-04-03T23:53:22.972Z,10.05
2019-04-03T23:55:55.116Z,10.93
2019-04-03T23:58:27.175Z,11.00
